createdAt,value
2022-11-13T00:00:10.509Z,3.45
2022-11-13T00:02:11.807Z,3.42
2022-11-13T00:04:13.826Z,3.47
2022-11-13T00:06:15.031Z,3.4
2022-11-13T00:08:17.004Z,3.39
2022-11-13T00:10:18.207Z,3.39
2022-11-13T00:12:19.486Z,3.43
2022-11-13T00:14:21.341Z,3.45
2022-11-13T00:16:23.066Z,3.41
2022-11-13T00:18:24.184Z,3.41
2022-11-13T00:20:25.146Z,3.41
2022-11-13T00:22:26.567Z,3.35
2022-11-13T00:24:28.441Z,3.34
2022-11-13T00:26:29.652Z,3.32
2022-11-13T00:28:31.273Z,3.32
2022-11-13T00:30:32.976Z,3.29
2022-11-13T00:32:34.378Z,3.34
2022-11-13T00:34:47.432Z,3.33
2022-11-13T00:36:38.003Z,3.25
2022-11-13T00:38:39.421Z,3.28
2022-11-13T00:40:40.497Z,3.29
2022-11-13T00:42:42.150Z,3.27
2022-11-13T00:44:43.357Z,3.28
2022-11-13T00:46:45.201Z,3.17
2022-11-13T00:48:47.153Z,3.17
2022-11-13T00:50:48.689Z,3.12
2022-11-13T00:52:49.889Z,3.08
2022-11-13T00:54:51.108Z,3.12
2022-11-13T00:56:52.529Z,3.07
2022-11-13T00:58:54.320Z,3.09
2022-11-13T01:00:56.161Z,3.13
2022-11-13T01:02:57.613Z,3.09
2022-11-13T01:04:59.412Z,3.05
2022-11-13T01:07:01.030Z,3.04
2022-11-13T01:09:02.107Z,3.06
2022-11-13T01:11:03.465Z,2.97
2022-11-13T01:13:05.457Z,2.94
2022-11-13T01:15:06.999Z,2.93
2022-11-13T01:17:08.939Z,2.83
2022-11-13T01:19:10.582Z,2.9
2022-11-13T01:21:12.272Z,2.89
2022-11-13T01:23:13.439Z,2.85
2022-11-13T01:25:14.825Z,2.86
2022-11-13T01:27:16.123Z,2.85
2022-11-13T01:29:17.901Z,2.82
2022-11-13T01:31:19.725Z,2.78
2022-11-13T01:33:21.437Z,2.75
2022-11-13T01:35:23.306Z,2.75
2022-11-13T01:37:24.357Z,2.78
2022-11-13T01:39:26.246Z,2.77
2022-11-13T01:41:28.234Z,2.62
2022-11-13T01:43:29.967Z,2.63
2022-11-13T01:45:31.403Z,2.63
2022-11-13T01:47:32.987Z,2.66
2022-11-13T01:49:34.340Z,2.68
2022-11-13T01:51:35.603Z,2.68
2022-11-13T01:53:37.576Z,2.59
2022-11-13T01:55:39.334Z,2.58
2022-11-13T01:57:40.994Z,2.62
2022-11-13T01:59:42.107Z,2.62
2022-11-13T02:01:43.467Z,2.61
2022-11-13T02:03:45.171Z,2.6
2022-11-13T02:05:46.558Z,2.65
2022-11-13T02:07:48.564Z,2.6
2022-11-13T02:09:50.005Z,2.58
2022-11-13T02:11:51.418Z,2.61
2022-11-13T02:13:53.230Z,2.61
2022-11-13T02:15:54.515Z,2.64
2022-11-13T02:17:56.091Z,2.67
2022-11-13T02:19:57.576Z,2.68
2022-11-13T02:21:58.846Z,2.65
2022-11-13T02:24:00.695Z,2.69
2022-11-13T02:26:02.555Z,2.69
2022-11-13T02:28:03.877Z,2.75
2022-11-13T02:30:07.416Z,2.73
2022-11-13T02:32:06.282Z,2.77
2022-11-13T02:34:07.936Z,2.75
2022-11-13T02:36:08.953Z,2.76
2022-11-13T02:38:10.124Z,2.78
2022-11-13T02:40:11.529Z,2.76
2022-11-13T02:42:13.312Z,2.8
2022-11-13T02:44:14.920Z,2.8
2022-11-13T02:46:16.861Z,2.8
2022-11-13T02:48:18.605Z,2.81
2022-11-13T02:50:20.292Z,2.8
2022-11-13T02:52:21.680Z,2.75
2022-11-13T02:54:23.546Z,2.7
2022-11-13T02:56:25.095Z,2.54
2022-11-13T02:58:26.593Z,2.44
2022-11-13T03:00:27.668Z,2.44
2022-11-13T03:02:28.811Z,2.4
2022-11-13T03:04:44.188Z,2.41
2022-11-13T03:06:31.486Z,2.38
2022-11-13T03:08:33.529Z,2.38
2022-11-13T03:10:34.564Z,2.38
2022-11-13T03:12:36.470Z,2.36
2022-11-13T03:14:38.429Z,2.39
2022-11-13T03:16:40.335Z,2.33
2022-11-13T03:18:41.908Z,2.25
2022-11-13T03:20:43.154Z,2.25
2022-11-13T03:22:44.843Z,2.16
2022-11-13T03:24:46.655Z,2.12
2022-11-13T03:26:48.230Z,2
2022-11-13T03:28:49.384Z,1.88
2022-11-13T03:30:50.752Z,1.79
2022-11-13T03:32:52.185Z,1.79
2022-11-13T03:34:53.629Z,1.79
2022-11-13T03:36:55.381Z,1.78
2022-11-13T03:38:57.151Z,1.82
2022-11-13T03:40:58.583Z,1.84
2022-11-13T03:42:59.730Z,1.84
2022-11-13T03:47:03.400Z,1.87
2022-11-13T03:49:05.420Z,1.88
2022-11-13T03:51:07.157Z,1.95
2022-11-13T03:53:08.069Z,1.94
2022-11-13T03:55:09.407Z,1.99
2022-11-13T03:57:10.997Z,2
2022-11-13T03:59:12.926Z,2.02
2022-11-13T04:01:14.758Z,2.02
2022-11-13T04:03:16.729Z,2.03
2022-11-13T04:05:22.541Z,2.08
2022-11-13T04:07:20.324Z,2.09
2022-11-13T04:09:22.162Z,2.1
2022-11-13T04:11:23.713Z,2.16
2022-11-13T04:13:25.208Z,2.11
2022-11-13T04:15:27.011Z,2.14
2022-11-13T04:17:28.371Z,2.16
2022-11-13T04:19:30.113Z,2.1
2022-11-13T04:21:31.775Z,2.14
2022-11-13T04:23:33.511Z,2.18
2022-11-13T04:25:35.409Z,2.19
2022-11-13T04:27:37.317Z,2.13
2022-11-13T04:29:38.432Z,2.13
2022-11-13T04:31:40.025Z,2.11
2022-11-13T04:33:41.845Z,2.06
2022-11-13T04:35:43.465Z,2.11
2022-11-13T04:37:45.223Z,2.07
2022-11-13T04:39:46.480Z,1.99
2022-11-13T04:41:51.262Z,1.98
2022-11-13T04:43:49.305Z,2.03
2022-11-13T04:46:01.109Z,2.09
2022-11-13T04:47:52.990Z,2.07
2022-11-13T04:49:54.859Z,2.04
2022-11-13T04:51:55.926Z,2.01
2022-11-13T04:53:57.571Z,2.04
2022-11-13T04:55:59.164Z,2.02
2022-11-13T04:58:00.833Z,2.02
2022-11-13T05:00:02.444Z,2.01
2022-11-13T05:02:04.034Z,2.03
2022-11-13T05:04:05.098Z,2.06
2022-11-13T05:06:06.947Z,2.09
2022-11-13T05:08:08.837Z,2.07
2022-11-13T05:10:10.714Z,1.96
2022-11-13T05:12:12.435Z,1.97
2022-11-13T05:14:13.500Z,2.01
2022-11-13T05:16:15.236Z,1.97
2022-11-13T05:18:16.315Z,1.98
2022-11-13T05:20:18.219Z,2
2022-11-13T05:22:19.526Z,2
2022-11-13T05:24:21.213Z,1.97
2022-11-13T05:26:22.583Z,1.99
2022-11-13T05:28:24.359Z,1.98
2022-11-13T05:30:26.296Z,1.96
2022-11-13T05:32:27.786Z,1.95
2022-11-13T05:34:29.198Z,1.93
2022-11-13T05:36:31.173Z,1.97
2022-11-13T05:38:32.999Z,1.99
2022-11-13T05:40:34.887Z,1.94
2022-11-13T05:42:36.923Z,1.86
2022-11-13T05:44:38.725Z,1.9
2022-11-13T05:46:39.765Z,1.85
2022-11-13T05:48:41.613Z,1.89
2022-11-13T05:50:43.061Z,1.86
2022-11-13T05:52:44.270Z,1.87
2022-11-13T05:54:45.557Z,1.86
2022-11-13T05:56:46.968Z,1.85
2022-11-13T05:58:48.731Z,1.86
2022-11-13T06:00:50.244Z,1.93
2022-11-13T06:02:51.760Z,1.97
2022-11-13T06:05:37.300Z,1.97
2022-11-13T06:07:38.597Z,1.97
2022-11-13T06:09:40.176Z,1.98
2022-11-13T06:11:41.506Z,2.02
2022-11-13T06:13:42.892Z,2.01
2022-11-13T06:15:44.591Z,1.97
2022-11-13T06:17:46.152Z,1.95
2022-11-13T06:19:47.546Z,1.93
2022-11-13T06:21:49.524Z,1.87
2022-11-13T06:23:51.089Z,1.88
2022-11-13T06:25:52.297Z,1.86
2022-11-13T06:27:53.749Z,1.81
2022-11-13T06:31:56.311Z,1.7
2022-11-13T06:33:57.770Z,1.68
2022-11-13T06:35:59.392Z,1.68
2022-11-13T06:38:00.854Z,1.74
2022-11-13T06:40:02.730Z,1.74
2022-11-13T06:42:04.111Z,1.68
2022-11-13T06:44:05.888Z,1.69
2022-11-13T06:46:08.008Z,1.7
2022-11-13T06:48:09.703Z,1.65
2022-11-13T06:50:11.308Z,1.7
2022-11-13T06:52:13.303Z,1.66
2022-11-13T06:54:14.458Z,1.64
2022-11-13T06:56:16.381Z,1.53
2022-11-13T06:58:18.333Z,1.52
2022-11-13T07:00:19.874Z,1.51
2022-11-13T07:02:21.466Z,1.49
2022-11-13T07:04:23.417Z,1.51
2022-11-13T07:06:24.488Z,1.52
2022-11-13T07:08:26.236Z,1.48
2022-11-13T07:10:27.087Z,1.56
2022-11-13T07:14:29.527Z,1.5
2022-11-13T07:16:38.991Z,1.56
2022-11-13T07:18:32.509Z,1.5
2022-11-13T07:20:34.469Z,1.53
2022-11-13T07:22:35.820Z,1.57
2022-11-13T07:24:37.035Z,1.55
2022-11-13T07:26:38.426Z,1.5
2022-11-13T07:28:39.798Z,1.46
2022-11-13T07:30:41.189Z,1.5
2022-11-13T07:32:42.944Z,1.49
2022-11-13T07:34:44.841Z,1.47
2022-11-13T07:36:46.285Z,1.5
2022-11-13T07:38:47.388Z,1.49
2022-11-13T07:40:49.353Z,1.49
2022-11-13T07:42:50.752Z,1.47
2022-11-13T07:44:54.793Z,1.47
2022-11-13T07:46:53.663Z,1.51
2022-11-13T07:48:55.223Z,1.55
2022-11-13T07:50:57.163Z,1.54
2022-11-13T07:52:58.577Z,1.47
2022-11-13T07:55:00.104Z,1.55
2022-11-13T07:57:01.801Z,1.63
2022-11-13T07:59:03.525Z,1.7
2022-11-13T08:01:04.808Z,1.79
2022-11-13T08:03:06.641Z,1.78
2022-11-13T08:05:08.451Z,1.68
2022-11-13T08:07:09.518Z,1.76
2022-11-13T08:09:11.272Z,1.85
2022-11-13T08:11:12.628Z,1.78
2022-11-13T08:13:14.579Z,1.97
2022-11-13T08:15:15.747Z,1.92
2022-11-13T08:17:17.232Z,1.92
2022-11-13T08:19:19.178Z,2.1
2022-11-13T08:21:20.725Z,2.06
2022-11-13T08:23:21.983Z,2.25
2022-11-13T08:25:23.613Z,2.47
2022-11-13T08:27:25.156Z,2.57
2022-11-13T08:29:26.918Z,2.75
2022-11-13T08:31:29.464Z,2.75
2022-11-13T08:33:31.311Z,2.55
2022-11-13T08:35:33.196Z,2.29
2022-11-13T08:39:36.106Z,2.28
2022-11-13T08:41:37.682Z,2.4
2022-11-13T08:43:39.626Z,2.32
2022-11-13T08:45:40.592Z,2.23
2022-11-13T08:47:41.919Z,2.38
2022-11-13T08:49:43.826Z,2.46
2022-11-13T08:51:45.490Z,2.08
2022-11-13T08:53:46.713Z,2.27
2022-11-13T08:55:48.078Z,2.52
2022-11-13T08:57:49.317Z,2.69
2022-11-13T08:59:50.713Z,2.86
2022-11-13T09:01:52.691Z,2.94
2022-11-13T09:03:54.257Z,3.18
2022-11-13T09:05:56.606Z,3.11
2022-11-13T09:07:57.794Z,2.6
2022-11-13T09:09:59.455Z,2.64
2022-11-13T09:12:01.177Z,2.83
2022-11-13T09:14:02.390Z,3.01
2022-11-13T09:16:03.617Z,3.52
2022-11-13T09:18:04.935Z,3.49
2022-11-13T09:20:07.658Z,3.58
2022-11-13T09:22:06.963Z,4.05
2022-11-13T09:24:08.433Z,3.38
2022-11-13T09:26:10.105Z,3.28
2022-11-13T09:28:11.324Z,3.14
2022-11-13T09:30:12.834Z,3.86
2022-11-13T09:32:14.490Z,4.08
2022-11-13T09:34:15.608Z,4.08
2022-11-13T09:36:17.377Z,3.61
2022-11-13T09:38:19.126Z,3.74
2022-11-13T09:40:21.002Z,4.17
2022-11-13T09:42:22.296Z,4.14
2022-11-13T09:44:23.789Z,4.13
2022-11-13T09:46:24.844Z,4.63
2022-11-13T09:48:26.489Z,4.17
2022-11-13T09:50:27.674Z,4.08
2022-11-13T09:52:28.669Z,4.08
2022-11-13T09:54:29.621Z,4.38
2022-11-13T09:56:31.091Z,4.74
2022-11-13T09:58:32.714Z,4.51
2022-11-13T10:00:34.075Z,4.37
2022-11-13T10:02:35.084Z,4.26
2022-11-13T10:04:36.335Z,4.66
2022-11-13T10:06:37.801Z,4.75
2022-11-13T10:08:39.663Z,5.14
2022-11-13T10:10:40.650Z,4.94
2022-11-13T10:12:42.150Z,5.15
2022-11-13T10:14:43.410Z,5.3
2022-11-13T10:16:45.227Z,5.28
2022-11-13T10:18:46.370Z,5.54
2022-11-13T10:20:47.436Z,5.59
2022-11-13T10:22:48.744Z,5.87
2022-11-13T10:24:50.440Z,5.7
2022-11-13T10:26:52.123Z,6.02
2022-11-13T10:28:53.559Z,6.35
2022-11-13T10:30:55.170Z,6.27
2022-11-13T10:32:56.492Z,6.44
2022-11-13T10:34:58.145Z,6.49
2022-11-13T10:36:59.887Z,6.59
2022-11-13T10:39:01.466Z,6.52
2022-11-13T10:41:02.539Z,6.56
2022-11-13T10:43:03.725Z,6.78
2022-11-13T10:45:09.568Z,7.07
2022-11-13T10:47:06.290Z,7.05
2022-11-13T10:49:08.047Z,7.27
2022-11-13T10:51:09.679Z,7.4
2022-11-13T10:53:11.286Z,7.77
2022-11-13T10:55:12.365Z,8.13
2022-11-13T10:57:13.784Z,8.32
2022-11-13T10:59:15.369Z,8.59
2022-11-13T11:03:18.338Z,8.81
2022-11-13T11:05:19.519Z,9.09
2022-11-13T11:07:21.666Z,9.19
2022-11-13T11:09:22.439Z,8.95
2022-11-13T11:11:23.811Z,9.1
2022-11-13T11:13:25.207Z,9.06
2022-11-13T11:15:27.091Z,9.05
2022-11-13T11:17:28.726Z,9.28
2022-11-13T11:19:30.255Z,9.2
2022-11-13T11:21:31.813Z,9.53
2022-11-13T11:23:33.650Z,9.48
2022-11-13T11:25:35.175Z,9.68
2022-11-13T11:27:36.507Z,9.77
2022-11-13T11:29:37.423Z,9.85
2022-11-13T11:31:39.025Z,10.01
2022-11-13T11:33:40.132Z,10.27
2022-11-13T11:35:41.467Z,10.31
2022-11-13T11:37:42.792Z,10.32
2022-11-13T11:39:44.609Z,10.34
2022-11-13T11:41:45.886Z,10.55
2022-11-13T11:43:47.302Z,10.51
2022-11-13T11:45:48.653Z,10.43
2022-11-13T11:47:50.405Z,10.64
2022-11-13T11:49:51.944Z,10.74
2022-11-13T11:51:52.839Z,10.67
2022-11-13T11:53:54.299Z,10.89
2022-11-13T11:55:55.457Z,10.93
2022-11-13T11:57:56.767Z,10.83
2022-11-13T11:59:58.511Z,10.83
2022-11-13T12:02:00.207Z,10.87
2022-11-13T12:04:01.745Z,11.03
2022-11-13T12:06:03.175Z,11.15
2022-11-13T12:08:04.108Z,11.46
2022-11-13T12:10:05.642Z,11.29
2022-11-13T12:12:07.468Z,11.24
2022-11-13T12:14:09.304Z,10.93
2022-11-13T12:16:10.852Z,10.95
2022-11-13T12:18:12.172Z,11.32
2022-11-13T12:20:13.876Z,11.38
2022-11-13T12:22:15.526Z,11.42
2022-11-13T12:24:17.005Z,11.54
2022-11-13T12:26:18.272Z,11.36
2022-11-13T12:28:19.382Z,11.32
2022-11-13T12:30:20.290Z,11.05
2022-11-13T12:32:21.950Z,11.09
2022-11-13T12:34:23.875Z,11.44
2022-11-13T12:36:25.379Z,11.63
2022-11-13T12:38:27.041Z,11.31
2022-11-13T12:40:28.087Z,11.1
2022-11-13T12:42:29.609Z,11.2
2022-11-13T12:44:31.339Z,11.39
2022-11-13T12:46:32.753Z,11.61
2022-11-13T12:48:33.957Z,11.62
2022-11-13T12:51:19.225Z,11.36
2022-11-13T12:53:20.170Z,11.34
2022-11-13T12:55:21.185Z,11.55
2022-11-13T12:57:27.127Z,11.51
2022-11-13T12:59:30.700Z,11.73
2022-11-13T13:01:26.019Z,11.74
2022-11-13T13:03:27.191Z,11.84
2022-11-13T13:05:28.392Z,11.6
2022-11-13T13:07:30.141Z,11.71
2022-11-13T13:09:31.785Z,11.63
2022-11-13T13:11:32.973Z,11.83
2022-11-13T13:13:34.153Z,11.78
2022-11-13T13:15:35.781Z,11.73
2022-11-13T13:17:36.905Z,11.96
2022-11-13T13:19:37.845Z,11.77
2022-11-13T13:21:39.516Z,11.77
2022-11-13T13:23:41.264Z,12.06
2022-11-13T13:25:42.241Z,11.99
2022-11-13T13:27:43.430Z,12
2022-11-13T13:29:44.710Z,11.92
2022-11-13T13:31:46.430Z,11.95
2022-11-13T13:33:47.558Z,11.74
2022-11-13T13:35:49.064Z,11.72
2022-11-13T13:37:50.656Z,11.52
2022-11-13T13:39:52.055Z,11.62
2022-11-13T13:41:53.455Z,11.76
2022-11-13T13:43:54.606Z,11.9
2022-11-13T13:45:55.484Z,12.02
2022-11-13T13:47:57.124Z,12.27
2022-11-13T13:49:58.959Z,11.81
2022-11-13T13:52:00.367Z,11.95
2022-11-13T13:54:01.256Z,12.08
2022-11-13T13:56:02.310Z,11.98
2022-11-13T13:58:05.642Z,11.97
2022-11-13T14:00:04.650Z,11.89
2022-11-13T14:02:06.492Z,11.87
2022-11-13T14:04:07.499Z,11.83
2022-11-13T14:06:09.238Z,11.78
2022-11-13T14:08:10.220Z,11.78
2022-11-13T14:10:11.231Z,12.01
2022-11-13T14:12:13.053Z,11.84
2022-11-13T14:14:14.728Z,11.85
2022-11-13T14:16:16.096Z,11.92
2022-11-13T14:18:17.241Z,11.8
2022-11-13T14:20:18.198Z,11.9
2022-11-13T14:22:19.529Z,11.83
2022-11-13T14:24:21.064Z,11.97
2022-11-13T14:26:22.204Z,12.26
2022-11-13T14:28:23.274Z,11.9
2022-11-13T14:30:24.625Z,11.77
2022-11-13T14:32:26.204Z,11.84
2022-11-13T14:34:27.802Z,11.77
2022-11-13T14:36:28.845Z,11.58
2022-11-13T14:38:30.209Z,11.6
2022-11-13T14:40:31.620Z,11.57
2022-11-13T14:42:32.604Z,11.49
2022-11-13T14:44:34.014Z,11.31
2022-11-13T14:46:35.418Z,11.25
2022-11-13T14:48:36.492Z,11.15
2022-11-13T14:52:38.759Z,10.84
2022-11-13T14:55:08.494Z,10.84
2022-11-13T14:56:41.331Z,10.8
2022-11-13T14:58:42.713Z,10.68
2022-11-13T15:00:43.674Z,10.52
2022-11-13T15:02:45.539Z,10.37
2022-11-13T15:04:47.375Z,10.3
2022-11-13T15:06:48.891Z,10.11
2022-11-13T15:08:49.930Z,10.09
2022-11-13T15:10:51.859Z,9.91
2022-11-13T15:12:53.351Z,9.8
2022-11-13T15:14:54.407Z,9.69
2022-11-13T15:16:55.706Z,9.57
2022-11-13T15:18:57.435Z,9.41
2022-11-13T15:20:58.693Z,9.29
2022-11-13T15:22:59.855Z,9.17
2022-11-13T15:25:01.083Z,9.01
2022-11-13T15:27:02.075Z,8.9
2022-11-13T15:29:03.382Z,8.85
2022-11-13T15:31:05.300Z,8.79
2022-11-13T15:33:06.963Z,8.68
2022-11-13T15:35:08.506Z,8.6
2022-11-13T15:37:09.503Z,8.57
2022-11-13T15:39:18.479Z,8.45
2022-11-13T15:41:12.420Z,8.33
2022-11-13T15:43:13.780Z,8.28
2022-11-13T15:45:15.454Z,8.33
2022-11-13T15:47:16.626Z,8.43
2022-11-13T15:49:18.327Z,8.33
2022-11-13T15:51:19.395Z,8.3
2022-11-13T15:53:20.504Z,8.26
2022-11-13T15:55:21.462Z,8.13
2022-11-13T15:57:23.048Z,8.08
2022-11-13T15:59:24.657Z,7.88
2022-11-13T16:01:26.124Z,7.7
2022-11-13T16:03:27.314Z,7.68
2022-11-13T16:05:28.576Z,7.62
2022-11-13T16:07:29.924Z,7.52
2022-11-13T16:09:31.173Z,7.4
2022-11-13T16:11:32.739Z,7.4
2022-11-13T16:13:33.899Z,7.49
2022-11-13T16:15:35.370Z,7.49
2022-11-13T16:17:37.229Z,7.42
2022-11-13T16:19:38.310Z,7.36
2022-11-13T16:21:39.379Z,7.24
2022-11-13T16:23:41.124Z,7.25
2022-11-13T16:25:42.646Z,7.14
2022-11-13T16:27:43.696Z,7.17
2022-11-13T16:29:45.655Z,7.23
2022-11-13T16:31:47.211Z,7.31
2022-11-13T16:33:48.792Z,7.27
2022-11-13T16:35:50.153Z,7.2
2022-11-13T16:37:51.820Z,7.08
2022-11-13T16:39:52.844Z,7.01
2022-11-13T16:41:54.043Z,6.82
2022-11-13T16:43:55.741Z,6.73
2022-11-13T16:45:57.760Z,6.68
2022-11-13T16:47:58.870Z,6.68
2022-11-13T16:50:00.678Z,6.47
2022-11-13T16:52:02.555Z,6.34
2022-11-13T16:54:03.573Z,6.37
2022-11-13T16:56:04.876Z,6.31
2022-11-13T16:58:06.021Z,6.2
2022-11-13T17:00:07.174Z,6.08
2022-11-13T17:02:08.912Z,5.95
2022-11-13T17:04:10.164Z,5.88
2022-11-13T17:06:11.205Z,5.93
2022-11-13T17:08:12.743Z,6.1
2022-11-13T17:10:31.125Z,6.15
2022-11-13T17:12:18.008Z,6.21
2022-11-13T17:16:19.395Z,6.3
2022-11-13T17:18:20.466Z,6.11
2022-11-13T17:20:21.488Z,6.06
2022-11-13T17:22:23.173Z,6.03
2022-11-13T17:24:24.488Z,5.94
2022-11-13T17:26:25.995Z,5.79
2022-11-13T17:28:27.017Z,5.68
2022-11-13T17:30:28.699Z,5.68
2022-11-13T17:32:30.529Z,5.65
2022-11-13T17:34:31.722Z,5.66
2022-11-13T17:36:33.301Z,5.79
2022-11-13T17:38:34.931Z,5.85
2022-11-13T17:40:36.314Z,5.78
2022-11-13T17:42:38.205Z,5.79
2022-11-13T17:44:39.471Z,5.74
2022-11-13T17:46:40.801Z,5.61
2022-11-13T17:48:42.327Z,5.57
2022-11-13T17:50:44.189Z,5.53
2022-11-13T17:52:46.144Z,5.53
2022-11-13T17:54:47.702Z,5.44
2022-11-13T17:56:48.797Z,5.48
2022-11-13T17:58:50.546Z,5.47
2022-11-13T18:00:52.383Z,5.35
2022-11-13T18:02:53.405Z,5.28
2022-11-13T18:04:54.490Z,5.19
2022-11-13T18:06:56.284Z,5.1
2022-11-13T18:08:57.532Z,4.94
2022-11-13T18:10:59.225Z,4.97
2022-11-13T18:13:00.793Z,4.85
2022-11-13T18:15:02.310Z,4.78
2022-11-13T18:17:03.913Z,4.84
2022-11-13T18:19:05.391Z,4.7
2022-11-13T18:21:19.023Z,4.68
2022-11-13T18:23:08.106Z,4.54
2022-11-13T18:25:09.777Z,4.37
2022-11-13T18:27:11.199Z,4.28
2022-11-13T18:29:12.758Z,4.04
2022-11-13T18:31:13.847Z,4.02
2022-11-13T18:33:14.876Z,3.88
2022-11-13T18:35:15.878Z,3.76
2022-11-13T18:37:17.437Z,3.78
2022-11-13T18:39:18.868Z,3.68
2022-11-13T18:41:19.978Z,3.74
2022-11-13T18:43:21.722Z,3.7
2022-11-13T18:45:22.984Z,3.99
2022-11-13T18:47:24.814Z,3.81
2022-11-13T18:49:26.412Z,3.91
2022-11-13T18:51:28.049Z,3.91
2022-11-13T18:53:29.346Z,4.03
2022-11-13T18:55:30.840Z,4.01
2022-11-13T18:57:32.230Z,4.01
2022-11-13T18:59:33.315Z,3.98
2022-11-13T19:01:34.647Z,4.01
2022-11-13T19:03:36.031Z,3.89
2022-11-13T19:05:37.923Z,3.94
2022-11-13T19:07:39.683Z,4.03
2022-11-13T19:09:40.858Z,3.89
2022-11-13T19:11:42.204Z,3.85
2022-11-13T19:13:43.757Z,3.73
2022-11-13T19:15:45.053Z,3.73
2022-11-13T19:17:50.349Z,3.59
2022-11-13T19:19:48.013Z,3.45
2022-11-13T19:21:49.592Z,3.44
2022-11-13T19:23:50.780Z,3.42
2022-11-13T19:25:52.672Z,3.44
2022-11-13T19:27:54.301Z,3.47
2022-11-13T19:29:55.739Z,3.35
2022-11-13T19:31:57.137Z,3.31
2022-11-13T19:33:58.351Z,3.26
2022-11-13T19:34:46.186Z,3.24
2022-11-13T19:36:43.773Z,3.27
2022-11-13T19:38:45.144Z,3.24
2022-11-13T19:40:46.969Z,3.25
2022-11-13T19:42:48.552Z,3.27
2022-11-13T19:44:49.793Z,3.34
2022-11-13T19:46:51.194Z,3.27
2022-11-13T19:48:52.936Z,3.55
2022-11-13T19:50:54.285Z,3.5
2022-11-13T19:52:55.344Z,3.55
2022-11-13T19:54:57.361Z,3.85
2022-11-13T19:56:59.316Z,3.97
2022-11-13T19:59:01.266Z,3.92
2022-11-13T20:01:03.159Z,3.82
2022-11-13T20:03:07.396Z,3.65
2022-11-13T20:05:06.114Z,3.54
2022-11-13T20:07:08.146Z,3.42
2022-11-13T20:09:09.888Z,3.32
2022-11-13T20:11:11.705Z,3.25
2022-11-13T20:13:13.049Z,3.29
2022-11-13T20:17:16.177Z,3.27
2022-11-13T20:19:17.982Z,3.32
2022-11-13T20:21:19.542Z,3.42
2022-11-13T20:23:21.035Z,3.34
2022-11-13T20:25:22.957Z,3.51
2022-11-13T20:27:24.822Z,3.46
2022-11-13T20:29:26.711Z,3.37
2022-11-13T20:31:28.414Z,3.48
2022-11-13T20:33:29.836Z,3.53
2022-11-13T20:35:30.929Z,3.7
2022-11-13T20:37:32.113Z,3.71
2022-11-13T20:39:33.932Z,3.54
2022-11-13T20:41:35.888Z,3.37
2022-11-13T20:43:37.231Z,3.3
2022-11-13T20:45:38.794Z,3.42
2022-11-13T20:47:40.316Z,3.48
2022-11-13T20:49:41.928Z,3.49
2022-11-13T20:51:43.052Z,3.51
2022-11-13T20:53:44.669Z,3.41
2022-11-13T20:55:46.280Z,2.98
2022-11-13T20:59:49.686Z,2.62
2022-11-13T21:01:50.928Z,2.62
2022-11-13T21:03:52.425Z,2.68
2022-11-13T21:05:53.788Z,2.65
2022-11-13T21:07:55.671Z,2.61
2022-11-13T21:09:57.324Z,2.49
2022-11-13T21:11:58.845Z,2.48
2022-11-13T21:14:00.241Z,2.41
2022-11-13T21:16:01.621Z,2.57
2022-11-13T21:18:02.928Z,2.8
2022-11-13T21:20:04.180Z,2.78
2022-11-13T21:22:05.670Z,2.69
2022-11-13T21:24:07.599Z,2.71
2022-11-13T21:26:08.891Z,2.43
2022-11-13T21:28:10.578Z,2.22
2022-11-13T21:30:11.727Z,2.32
2022-11-13T21:32:13.135Z,2.45
2022-11-13T21:34:14.231Z,2.4
2022-11-13T21:36:16.184Z,2.26
2022-11-13T21:38:17.901Z,2.41
2022-11-13T21:40:19.112Z,2.45
2022-11-13T21:42:20.792Z,2.57
2022-11-13T21:44:22.519Z,2.56
2022-11-13T21:46:23.553Z,2.48
2022-11-13T21:48:27.062Z,2.46
2022-11-13T21:50:27.062Z,2.54
2022-11-13T21:52:28.741Z,2.4
2022-11-13T21:54:30.648Z,2.29
2022-11-13T21:56:32.273Z,2.24
2022-11-13T21:58:33.616Z,2.37
2022-11-13T22:00:35.236Z,2.43
2022-11-13T22:02:37.137Z,2.35
2022-11-13T22:04:38.176Z,2.25
2022-11-13T22:06:39.478Z,2.1
2022-11-13T22:08:40.586Z,2.06
2022-11-13T22:10:42.242Z,2.01
2022-11-13T22:12:43.530Z,1.82
2022-11-13T22:14:45.401Z,1.69
2022-11-13T22:16:47.112Z,1.73
2022-11-13T22:18:48.419Z,1.74
2022-11-13T22:20:50.423Z,1.77
2022-11-13T22:22:51.924Z,1.73
2022-11-13T22:24:53.703Z,1.66
2022-11-13T22:26:55.245Z,1.86
2022-11-13T22:28:56.563Z,2.01
2022-11-13T22:30:58.482Z,2.16
2022-11-13T22:33:00.368Z,2.36
2022-11-13T22:35:02.092Z,2.42
2022-11-13T22:37:03.500Z,2.33
2022-11-13T22:39:05.124Z,1.82
2022-11-13T22:41:06.760Z,1.63
2022-11-13T22:43:08.243Z,1.55
2022-11-13T22:45:22.696Z,1.49
2022-11-13T22:47:11.462Z,1.61
2022-11-13T22:49:12.733Z,1.86
2022-11-13T22:51:14.128Z,1.88
2022-11-13T22:53:15.564Z,1.84
2022-11-13T22:55:16.755Z,1.78
2022-11-13T22:57:18.065Z,1.7
2022-11-13T22:59:20.003Z,1.5
2022-11-13T23:01:21.912Z,1.05
2022-11-13T23:03:23.801Z,1.03
2022-11-13T23:05:24.918Z,1.23
2022-11-13T23:07:26.041Z,1.33
2022-11-13T23:09:27.636Z,1.36
2022-11-13T23:11:28.813Z,1.38
2022-11-13T23:13:30.481Z,1.48
2022-11-13T23:15:31.795Z,1.6
2022-11-13T23:17:32.980Z,1.55
2022-11-13T23:19:34.787Z,1.53
2022-11-13T23:21:36.030Z,1.48
2022-11-13T23:23:38.054Z,1.42
2022-11-13T23:25:39.584Z,1.41
2022-11-13T23:27:41.473Z,1.47
2022-11-13T23:29:47.310Z,1.36
2022-11-13T23:31:44.567Z,1.35
2022-11-13T23:33:45.981Z,1.26
2022-11-13T23:35:47.650Z,1.26
2022-11-13T23:37:49.609Z,1.18
2022-11-13T23:39:50.884Z,1.26
2022-11-13T23:41:51.971Z,1.11
2022-11-13T23:44:07.993Z,1.07
2022-11-13T23:45:55.279Z,1.12
2022-11-13T23:47:56.979Z,1.09
2022-11-13T23:49:58.056Z,1.27
2022-11-13T23:51:59.363Z,1.19
2022-11-13T23:54:00.664Z,1.21
2022-11-13T23:56:01.874Z,1.22
2022-11-13T23:58:03.037Z,1.3
